Time;durP1;ratioP1;P1;durP2;ratioP2;P2;SDS_P1;SDS_P2;PMS_P1;PMS_P2;Temp;Humidity;BMP_temperature;BMP_pressure;BME280_temperature;BME280_humidity;BME280_pressure;Samples;Min_cycle;Max_cycle;Signal;HPM_P1;HPM_P2
2021/11/17 02:27:04;;;;;;;1.02;0.35;;;23.20;37.90;;;;;;4962046;28;20281;-52
2021/11/17 02:29:52;;;;;;;3.40;0.43;;;23.20;37.80;;;;;;4965605;28;20252;-50
2021/11/17 02:32:40;;;;;;;0.85;0.30;;;23.30;37.80;;;;;;4963480;28;20198;-50
2021/11/17 02:35:31;;;;;;;0.88;0.40;;;23.30;37.90;;;;;;4965257;28;20302;-48
2021/11/17 02:38:17;;;;;;;3.00;0.40;;;23.30;37.90;;;;;;4966715;28;20647;-57
2021/11/17 02:41:01;;;;;;;1.45;0.40;;;23.30;37.90;;;;;;4965431;28;20194;-49
2021/11/17 02:43:54;;;;;;;1.55;0.25;;;23.40;37.80;;;;;;4965436;28;20202;-49
2021/11/17 02:46:40;;;;;;;0.73;0.28;;;23.40;37.80;;;;;;4958900;28;20277;-50
2021/11/17 02:49:30;;;;;;;1.13;0.40;;;23.40;37.60;;;;;;4962882;28;20706;-49
2021/11/17 02:52:20;;;;;;;0.95;0.40;;;23.40;37.50;;;;;;4962852;28;20208;-48
2021/11/17 02:55:04;;;;;;;0.47;0.30;;;23.50;37.50;;;;;;4965306;28;20217;-50
2021/11/17 02:57:58;;;;;;;0.90;0.28;;;23.40;37.40;;;;;;4964864;28;20738;-48
2021/11/17 03:01:00;;;;;;;0.70;0.28;;;23.50;37.40;;;;;;4966977;28;20214;-49
2021/11/17 03:03:46;;;;;;;0.57;0.30;;;23.50;37.60;;;;;;4967054;28;20204;-48
2021/11/17 03:06:35;;;;;;;1.35;0.30;;;23.50;37.70;;;;;;4966474;28;20280;-51
2021/11/17 03:09:23;;;;;;;0.52;0.30;;;23.50;37.60;;;;;;4967517;28;20202;-51
2021/11/17 03:12:19;;;;;;;0.25;0.20;;;23.50;37.70;;;;;;4966312;28;20198;-48
2021/11/17 03:15:04;;;;;;;1.08;0.20;;;23.50;37.70;;;;;;4965979;28;20741;-50
2021/11/17 03:17:51;;;;;;;1.02;0.47;;;23.50;37.70;;;;;;4964651;28;20956;-53
2021/11/17 03:20:49;;;;;;;0.55;0.30;;;23.60;37.60;;;;;;4966653;28;20829;-51
2021/11/17 03:23:31;;;;;;;0.82;0.35;;;23.60;37.70;;;;;;4968101;28;21064;-50
2021/11/17 03:26:16;;;;;;;0.20;0.20;;;23.60;37.70;;;;;;4968084;28;20637;-48
2021/11/17 03:29:14;;;;;;;0.55;0.20;;;23.60;37.60;;;;;;4968922;28;20209;-51
2021/11/17 03:32:07;;;;;;;0.80;0.32;;;23.60;37.40;;;;;;4968366;28;20210;-50
2021/11/17 03:35:05;;;;;;;0.35;0.20;;;23.60;37.30;;;;;;4966740;28;20218;-50
2021/11/17 03:37:58;;;;;;;0.50;0.20;;;23.60;37.30;;;;;;4966232;28;20286;-51
2021/11/17 03:40:57;;;;;;;0.20;0.17;;;23.70;37.20;;;;;;4967969;28;20194;-54
2021/11/17 03:44:00;;;;;;;0.20;0.20;;;23.70;37.20;;;;;;4970063;28;20195;-54
2021/11/17 03:47:05;;;;;;;0.20;0.20;;;23.70;37.20;;;;;;4968408;28;20669;-52
2021/11/17 03:49:51;;;;;;;0.22;0.10;;;23.70;37.30;;;;;;4965939;28;20213;-47
2021/11/17 03:52:39;;;;;;;0.15;0.10;;;23.70;37.50;;;;;;4966944;28;20190;-49
2021/11/17 03:55:31;;;;;;;0.30;0.10;;;23.70;37.60;;;;;;4967142;28;20280;-49
2021/11/17 03:58:13;;;;;;;0.40;0.30;;;23.70;37.60;;;;;;4967872;28;20202;-49
2021/11/17 04:01:09;;;;;;;0.73;0.30;;;23.70;37.70;;;;;;4967755;28;20206;-49
2021/11/17 04:04:09;;;;;;;0.43;0.30;;;23.70;38.30;;;;;;4966596;28;20206;-48
2021/11/17 04:07:01;;;;;;;0.40;0.30;;;23.70;37.60;;;;;;4964984;28;20210;-48
2021/11/17 04:09:50;;;;;;;1.95;0.40;;;23.70;37.70;;;;;;4966164;28;20669;-52
2021/11/17 04:12:32;;;;;;;0.80;0.20;;;23.70;37.60;;;;;;4967119;28;20289;-50
2021/11/17 04:15:17;;;;;;;0.35;0.28;;;23.70;37.50;;;;;;4965070;28;20304;-53
2021/11/17 04:17:57;;;;;;;1.00;0.38;;;23.60;37.40;;;;;;4965313;28;20198;-46
2021/11/17 04:20:40;;;;;;;1.10;0.30;;;23.70;37.50;;;;;;4966492;28;20313;-50
2021/11/17 04:23:28;;;;;;;2.28;0.40;;;23.70;37.40;;;;;;4963232;28;20202;-52
2021/11/17 04:26:14;;;;;;;0.77;0.20;;;23.70;37.50;;;;;;4967041;28;20207;-51
2021/11/17 04:28:57;;;;;;;0.50;0.25;;;23.70;37.50;;;;;;4965921;28;20614;-52
2021/11/17 04:31:44;;;;;;;1.00;0.35;;;23.60;37.40;;;;;;4966787;28;20194;-48
2021/11/17 04:34:46;;;;;;;0.25;0.20;;;23.60;37.60;;;;;;4966801;28;20226;-52
2021/11/17 04:37:39;;;;;;;0.95;0.30;;;23.60;37.60;;;;;;4954428;28;20774;-53
2021/11/17 04:40:38;;;;;;;2.13;0.40;;;23.60;37.60;;;;;;4964668;28;20304;-51
2021/11/17 04:43:30;;;;;;;0.65;0.20;;;23.60;37.70;;;;;;4964852;28;20211;-48
2021/11/17 04:46:13;;;;;;;1.75;0.50;;;23.60;37.90;;;;;;4965274;28;20203;-48
2021/11/17 04:48:56;;;;;;;1.15;0.30;;;23.60;37.90;;;;;;4965812;28;20209;-46
2021/11/17 04:51:53;;;;;;;1.27;0.28;;;23.60;38.10;;;;;;4965684;28;20290;-48
2021/11/17 04:54:45;;;;;;;0.30;0.20;;;23.60;38.10;;;;;;4966467;28;20214;-52
2021/11/17 04:57:34;;;;;;;0.50;0.30;;;23.60;38.20;;;;;;4967631;28;20297;-51
2021/11/17 05:00:39;;;;;;;0.32;0.25;;;23.60;38.10;;;;;;4966573;28;20591;-47
2021/11/17 05:03:22;;;;;;;0.30;0.20;;;23.60;38.00;;;;;;4946747;28;20309;-47
2021/11/17 05:06:07;;;;;;;0.32;0.25;;;23.60;38.00;;;;;;4964518;28;20277;-48
2021/11/17 05:08:45;;;;;;;0.30;0.20;;;23.60;38.00;;;;;;4964316;28;20198;-48
2021/11/17 05:11:27;;;;;;;0.88;0.40;;;23.60;38.10;;;;;;4965943;28;20289;-50
2021/11/17 05:14:05;;;;;;;0.43;0.20;;;23.60;38.10;;;;;;4964836;28;20222;-47
2021/11/17 05:16:53;;;;;;;0.30;0.20;;;23.60;38.20;;;;;;4964650;28;20284;-48
2021/11/17 05:19:33;;;;;;;1.35;0.47;;;23.60;38.30;;;;;;4964833;28;20244;-47
2021/11/17 05:22:32;;;;;;;0.65;0.25;;;23.60;38.40;;;;;;4964748;28;20198;-51
2021/11/17 05:25:16;;;;;;;1.30;0.30;;;23.60;38.50;;;;;;4963078;28;20224;-50
2021/11/17 05:28:01;;;;;;;1.75;0.50;;;23.60;38.60;;;;;;4961970;28;20238;-50
2021/11/17 05:30:46;;;;;;;0.77;0.30;;;23.60;38.70;;;;;;4966021;28;20202;-50
2021/11/17 05:33:33;;;;;;;0.45;0.40;;;23.60;38.80;;;;;;4966528;28;20294;-49
2021/11/17 05:36:16;;;;;;;0.85;0.45;;;23.60;38.90;;;;;;4966138;28;20292;-50
2021/11/17 05:38:59;;;;;;;2.63;0.40;;;23.60;38.90;;;;;;4967179;28;20205;-47
2021/11/17 05:41:44;;;;;;;3.65;0.52;;;23.60;38.90;;;;;;4964674;28;20190;-52
2021/11/17 05:44:27;;;;;;;4.43;0.90;;;23.60;39.20;;;;;;4964630;28;20229;-51
2021/11/17 05:47:12;;;;;;;2.92;0.80;;;23.60;39.20;;;;;;4964649;28;20210;-50
2021/11/17 05:49:53;;;;;;;7.35;0.80;;;23.60;39.30;;;;;;4964027;28;20296;-50
2021/11/17 05:52:43;;;;;;;3.00;0.88;;;23.60;39.30;;;;;;4964564;28;20224;-48
2021/11/17 05:55:40;;;;;;;3.47;0.70;;;23.50;39.30;;;;;;4963142;28;20226;-51
2021/11/17 05:58:25;;;;;;;5.60;1.40;;;23.50;39.30;;;;;;4961783;28;20198;-50
2021/11/17 06:01:09;;;;;;;5.95;1.40;;;23.60;39.60;;;;;;4963597;28;20229;-49
2021/11/17 06:04:01;;;;;;;8.15;1.45;;;23.60;39.80;;;;;;4963896;28;20202;-50
2021/11/17 06:06:36;;;;;;;5.03;1.23;;;23.50;39.80;;;;;;4962970;28;20221;-48
2021/11/17 06:09:05;;;;;;;4.25;1.15;;;23.50;39.70;;;;;;4965342;28;20430;-46
2021/11/17 06:11:40;;;;;;;4.68;1.30;;;23.50;39.70;;;;;;4965015;28;20198;-49
2021/11/17 06:14:13;;;;;;;4.88;1.27;;;23.50;39.70;;;;;;4964738;28;20220;-46
2021/11/17 06:16:47;;;;;;;5.38;1.40;;;23.50;39.70;;;;;;4963585;28;20205;-48
2021/11/17 06:19:21;;;;;;;3.17;1.10;;;23.50;39.70;;;;;;4963970;28;20236;-50
2021/11/17 06:21:52;;;;;;;6.18;1.00;;;23.50;39.90;;;;;;4962607;28;20205;-51
2021/11/17 06:24:25;;;;;;;1.65;0.93;;;23.50;40.00;;;;;;4963162;28;20313;-48
2021/11/17 06:26:58;;;;;;;4.32;1.10;;;23.50;40.00;;;;;;4965320;28;20289;-50
2021/11/17 06:29:31;;;;;;;3.58;0.85;;;23.40;39.90;;;;;;4964510;28;20198;-50
2021/11/17 06:32:03;;;;;;;3.28;1.20;;;23.50;40.10;;;;;;4965764;28;20197;-47
2021/11/17 06:34:36;;;;;;;4.30;1.00;;;23.40;40.20;;;;;;4963385;28;20704;-47
2021/11/17 06:37:09;;;;;;;7.68;1.45;;;23.50;40.50;;;;;;4964268;28;20289;-47
2021/11/17 06:39:41;;;;;;;3.22;1.02;;;23.50;40.70;;;;;;4963648;28;20236;-50
2021/11/17 06:42:15;;;;;;;9.38;1.75;;;23.40;40.70;;;;;;4960740;28;20213;-50
2021/11/17 06:44:46;;;;;;;10.95;1.50;;;23.40;41.50;;;;;;4954268;28;20679;-51
2021/11/17 06:47:16;;;;;;;5.68;1.65;;;23.40;41.40;;;;;;4966707;28;20198;-51
2021/11/17 06:49:47;;;;;;;7.35;1.58;;;23.40;41.50;;;;;;4957987;23;20769;-48
2021/11/17 06:52:18;;;;;;;2.67;1.20;;;23.40;41.60;;;;;;4946870;28;20209;-46
2021/11/17 06:54:49;;;;;;;4.97;1.60;;;23.40;41.60;;;;;;4957718;28;20761;-46
2021/11/17 06:57:21;;;;;;;3.45;1.40;;;23.40;41.60;;;;;;4964727;28;20204;-45
2021/11/17 06:59:52;;;;;;;4.10;1.27;;;23.40;42.10;;;;;;4965021;28;20240;-50
2021/11/17 07:02:22;;;;;;;4.53;1.30;;;23.40;42.10;;;;;;4966694;28;20325;-48
2021/11/17 07:04:53;;;;;;;3.28;1.50;;;23.40;42.00;;;;;;4966331;28;20218;-51
2021/11/17 07:07:23;;;;;;;4.93;1.52;;;23.30;42.00;;;;;;4965407;28;20203;-49
2021/11/17 07:09:54;;;;;;;3.33;1.50;;;23.30;42.30;;;;;;4964411;28;20285;-45
2021/11/17 07:12:26;;;;;;;3.55;1.35;;;23.30;42.20;;;;;;4963973;28;20285;-43
2021/11/17 07:14:57;;;;;;;4.30;1.33;;;23.30;42.10;;;;;;4959658;28;20230;-43
2021/11/17 07:17:27;;;;;;;3.63;1.50;;;23.30;42.10;;;;;;4965915;28;20628;-51
2021/11/17 07:19:58;;;;;;;4.50;1.50;;;23.30;42.10;;;;;;4966122;28;20233;-47
2021/11/17 07:22:28;;;;;;;4.15;1.35;;;23.30;42.10;;;;;;4965840;28;20285;-49
2021/11/17 07:24:59;;;;;;;4.22;1.05;;;23.20;42.50;;;;;;4965090;28;20304;-46
2021/11/17 07:27:32;;;;;;;3.38;1.45;;;23.20;42.50;;;;;;4958060;28;20201;-46
2021/11/17 07:30:02;;;;;;;2.20;1.30;;;23.20;43.10;;;;;;4964628;28;20798;-45
2021/11/17 07:32:32;;;;;;;3.75;1.40;;;23.20;42.50;;;;;;4965320;28;20281;-48
2021/11/17 07:35:03;;;;;;;4.47;1.50;;;23.20;42.50;;;;;;4963996;28;20222;-47
2021/11/17 07:37:34;;;;;;;3.88;1.10;;;23.10;42.60;;;;;;4966817;28;20694;-47
2021/11/17 07:40:04;;;;;;;2.20;1.10;;;23.10;42.50;;;;;;4954602;28;20219;-47
2021/11/17 07:42:37;;;;;;;2.75;1.23;;;23.10;42.50;;;;;;4967220;28;20206;-47
2021/11/17 07:45:08;;;;;;;3.95;1.27;;;23.10;42.50;;;;;;4963021;28;20229;-48
2021/11/17 07:47:46;;;;;;;3.35;1.50;;;23.00;42.50;;;;;;4967315;28;20206;-45
2021/11/17 07:50:17;;;;;;;4.03;1.52;;;23.10;42.60;;;;;;4969128;28;20213;-46
2021/11/17 07:52:48;;;;;;;2.30;1.30;;;23.00;42.60;;;;;;4969672;28;20206;-45
2021/11/17 07:55:20;;;;;;;2.78;1.45;;;23.00;42.70;;;;;;4968344;28;20218;-45
2021/11/17 07:57:54;;;;;;;2.00;1.20;;;23.00;42.70;;;;;;4968551;28;20325;-48
2021/11/17 08:00:27;;;;;;;2.28;1.20;;;23.00;42.90;;;;;;4967938;28;20579;-44
2021/11/17 08:02:57;;;;;;;2.42;1.35;;;23.00;42.80;;;;;;4967116;28;20202;-47
2021/11/17 08:05:28;;;;;;;3.05;1.25;;;22.90;42.80;;;;;;4967612;28;20218;-46
2021/11/17 08:07:59;;;;;;;3.22;1.30;;;22.90;42.90;;;;;;4967800;28;20202;-46
2021/11/17 08:10:33;;;;;;;3.58;1.10;;;22.90;42.90;;;;;;4969408;28;20202;-45
2021/11/17 08:13:06;;;;;;;3.97;1.27;;;22.90;43.10;;;;;;4969635;28;20709;-43
2021/11/17 08:15:37;;;;;;;3.03;1.10;;;22.90;43.10;;;;;;4966714;28;20313;-45
2021/11/17 08:18:07;;;;;;;2.88;1.25;;;22.80;43.10;;;;;;4960581;28;20228;-48
2021/11/17 08:20:38;;;;;;;2.08;1.25;;;22.80;43.20;;;;;;4966975;28;20224;-46
2021/11/17 08:23:09;;;;;;;2.17;1.02;;;22.80;43.20;;;;;;4968198;28;20401;-45
2021/11/17 08:25:41;;;;;;;2.35;1.30;;;22.80;43.30;;;;;;4968108;28;20230;-46
2021/11/17 08:28:15;;;;;;;3.25;1.20;;;22.70;43.30;;;;;;4969151;28;20688;-46
2021/11/17 08:30:46;;;;;;;1.60;1.00;;;22.70;43.30;;;;;;4953270;28;20201;-48
2021/11/17 08:33:18;;;;;;;2.72;1.35;;;22.70;43.30;;;;;;4967861;28;20210;-46
2021/11/17 08:35:49;;;;;;;1.83;0.90;;;22.60;43.30;;;;;;4966749;28;20256;-46
2021/11/17 08:38:22;;;;;;;3.03;1.08;;;22.70;43.40;;;;;;4962726;28;20211;-48
2021/11/17 08:40:54;;;;;;;2.28;1.10;;;22.60;43.30;;;;;;4966136;28;20222;-45
2021/11/17 08:43:27;;;;;;;3.83;1.13;;;22.60;43.40;;;;;;4967520;28;20389;-44
2021/11/17 08:45:58;;;;;;;1.60;0.90;;;22.60;43.50;;;;;;4968603;28;20710;-44
2021/11/17 08:48:31;;;;;;;2.17;0.98;;;22.60;43.50;;;;;;4966997;28;20209;-47
2021/11/17 08:51:05;;;;;;;2.67;1.10;;;22.50;43.50;;;;;;4956201;28;20217;-45
2021/11/17 08:53:37;;;;;;;1.63;1.00;;;22.50;43.50;;;;;;4966694;28;20198;-46
2021/11/17 08:56:09;;;;;;;3.63;1.42;;;22.50;43.60;;;;;;4962627;28;20209;-43
2021/11/17 08:58:42;;;;;;;3.83;1.00;;;22.50;43.60;;;;;;4966155;28;20207;-49
2021/11/17 09:01:13;;;;;;;2.28;0.90;;;22.40;43.60;;;;;;4967554;28;20980;-46
2021/11/17 09:03:44;;;;;;;2.95;1.00;;;22.40;43.70;;;;;;4967555;28;20241;-44
2021/11/17 09:06:15;;;;;;;1.15;0.80;;;22.40;44.00;;;;;;4967472;28;20565;-45
2021/11/17 09:08:46;;;;;;;2.55;0.95;;;22.40;43.70;;;;;;4967653;28;20309;-43
2021/11/17 09:11:18;;;;;;;1.98;1.00;;;22.30;43.70;;;;;;4959453;28;20742;-44
2021/11/17 09:13:51;;;;;;;2.20;1.20;;;22.30;43.80;;;;;;4966243;28;20218;-47
2021/11/17 09:16:21;;;;;;;1.90;1.00;;;22.30;43.80;;;;;;4965042;28;20199;-45
2021/11/17 09:18:53;;;;;;;1.75;0.93;;;22.30;43.80;;;;;;4968518;28;20289;-44
2021/11/17 09:21:23;;;;;;;2.85;1.10;;;22.30;43.90;;;;;;4951023;28;20223;-46
2021/11/17 09:23:54;;;;;;;2.13;1.13;;;22.20;43.90;;;;;;4966300;28;20660;-46
2021/11/17 09:26:24;;;;;;;1.98;0.98;;;22.20;43.90;;;;;;4961056;28;20207;-43
2021/11/17 09:28:58;;;;;;;2.30;1.00;;;22.20;44.00;;;;;;4966688;28;20563;-46
2021/11/17 09:31:30;;;;;;;2.13;0.90;;;22.20;44.00;;;;;;4966509;28;20208;-45
2021/11/17 09:34:02;;;;;;;1.98;1.10;;;22.10;44.00;;;;;;4966822;28;20228;-44
2021/11/17 09:36:35;;;;;;;2.85;1.02;;;22.20;44.10;;;;;;4966955;28;20201;-44
2021/11/17 09:39:07;;;;;;;2.90;1.25;;;22.10;44.10;;;;;;4966985;28;20448;-45
2021/11/17 09:41:41;;;;;;;1.80;1.02;;;22.10;44.20;;;;;;4966292;28;20308;-44
2021/11/17 09:44:16;;;;;;;2.10;1.00;;;22.10;44.20;;;;;;4964190;28;20226;-50
2021/11/17 09:46:49;;;;;;;2.78;1.15;;;22.10;44.30;;;;;;4966545;28;20281;-46
2021/11/17 09:49:28;;;;;;;2.92;1.00;;;22.00;44.30;;;;;;4966532;28;20321;-48
2021/11/17 09:52:03;;;;;;;1.40;0.80;;;22.00;44.30;;;;;;4967063;28;20198;-49
2021/11/17 09:54:40;;;;;;;1.60;1.15;;;22.00;44.30;;;;;;4967132;28;20222;-47
2021/11/17 09:57:14;;;;;;;2.10;1.00;;;22.00;44.30;;;;;;4965438;28;20197;-46
2021/11/17 09:59:49;;;;;;;1.20;0.85;;;21.90;44.30;;;;;;4966838;28;20206;-44
2021/11/17 10:02:22;;;;;;;3.15;1.10;;;21.90;44.30;;;;;;4964168;28;20243;-47
2021/11/17 10:05:00;;;;;;;2.17;0.98;;;21.90;44.40;;;;;;4965990;28;20309;-45
2021/11/17 10:08:05;;;;;;;2.00;0.93;;;21.90;44.40;;;;;;4964358;28;20244;-48
2021/11/17 10:13:29;;;;;;;1.30;1.00;;;21.90;44.40;;;;;;4964402;28;20210;-47
2021/11/17 10:16:01;;;;;;;4.50;1.08;;;21.80;44.40;;;;;;4965423;28;20261;-48
2021/11/17 10:18:36;;;;;;;2.42;0.82;;;21.80;44.50;;;;;;4966793;28;20226;-46
2021/11/17 10:21:10;;;;;;;2.45;1.00;;;21.80;44.50;;;;;;4966958;28;20285;-45
2021/11/17 10:23:58;;;;;;;2.40;1.00;;;21.80;44.60;;;;;;4963606;28;20212;-44
2021/11/17 10:26:29;;;;;;;1.77;0.95;;;21.70;44.60;;;;;;4962905;28;20198;-46
2021/11/17 10:29:01;;;;;;;2.20;0.90;;;21.70;44.60;;;;;;4956716;28;20289;-45
2021/11/17 10:31:47;;;;;;;0.98;0.80;;;21.70;44.70;;;;;;4956916;28;20289;-45
2021/11/17 10:34:20;;;;;;;1.60;0.85;;;21.70;44.70;;;;;;4959494;28;20858;-45
2021/11/17 10:36:57;;;;;;;1.55;0.80;;;21.70;44.70;;;;;;4964314;28;20205;-46
2021/11/17 10:39:29;;;;;;;2.65;1.10;;;21.60;44.70;;;;;;4955269;28;20209;-44
2021/11/17 10:42:06;;;;;;;1.65;1.00;;;21.60;44.70;;;;;;4952474;28;20305;-43
2021/11/17 10:44:44;;;;;;;1.67;0.90;;;21.60;44.70;;;;;;4968091;28;20244;-48
2021/11/17 10:47:23;;;;;;;2.63;1.10;;;21.60;44.70;;;;;;4954428;28;20663;-43
2021/11/17 10:49:56;;;;;;;1.50;0.80;;;21.60;44.70;;;;;;4967318;28;20259;-45
2021/11/17 10:52:32;;;;;;;1.85;0.90;;;21.60;44.80;;;;;;4956988;28;20213;-44
2021/11/17 10:55:06;;;;;;;1.98;0.90;;;21.60;44.80;;;;;;4954729;28;20285;-44
2021/11/17 10:57:38;;;;;;;1.38;0.70;;;21.60;44.80;;;;;;4953893;28;20195;-47
2021/11/17 11:00:12;;;;;;;2.17;0.95;;;21.50;44.80;;;;;;4953307;28;20444;-47
2021/11/17 11:02:45;;;;;;;2.05;0.90;;;21.50;44.90;;;;;;4950385;28;20766;-47
2021/11/17 11:05:18;;;;;;;1.30;0.73;;;21.50;44.90;;;;;;4967139;28;20225;-47
2021/11/17 11:07:55;;;;;;;1.05;0.70;;;21.50;44.90;;;;;;4954385;28;20289;-45
2021/11/17 11:10:33;;;;;;;1.52;1.00;;;21.50;45.00;;;;;;4955836;28;20203;-45
2021/11/17 11:13:05;;;;;;;1.85;0.90;;;21.50;45.00;;;;;;4954128;28;20198;-44
2021/11/17 11:15:42;;;;;;;2.60;0.98;;;21.40;44.90;;;;;;4961508;28;20226;-46
2021/11/17 11:18:43;;;;;;;1.23;0.80;;;21.40;45.00;;;;;;4958036;28;20738;-45
2021/11/17 11:21:16;;;;;;;3.00;1.30;;;21.40;45.10;;;;;;4968136;28;20218;-45
2021/11/17 11:24:30;;;;;;;2.05;0.93;;;21.40;45.00;;;;;;4955803;28;20225;-46
2021/11/17 11:27:23;;;;;;;2.05;0.98;;;21.40;45.00;;;;;;4924431;28;20198;-46
2021/11/17 11:30:43;;;;;;;2.20;0.75;;;21.30;45.00;;;;;;4970364;28;20730;-44
2021/11/17 11:33:29;;;;;;;1.67;0.90;;;21.30;45.00;;;;;;4958771;28;20202;-43
2021/11/17 11:36:37;;;;;;;2.03;1.05;;;21.30;45.00;;;;;;4968975;28;20289;-45
2021/11/17 11:39:40;;;;;;;1.65;0.75;;;21.30;45.00;;;;;;4956472;28;20211;-49
2021/11/17 11:42:39;;;;;;;1.67;0.90;;;21.30;45.10;;;;;;4957525;28;20317;-46
2021/11/17 11:45:40;;;;;;;1.90;0.95;;;21.30;45.10;;;;;;4968812;28;20244;-47
2021/11/17 11:48:13;;;;;;;2.88;0.95;;;21.20;45.70;;;;;;4969366;28;20715;-47
2021/11/17 11:50:55;;;;;;;1.15;0.77;;;21.20;45.10;;;;;;4967910;28;20217;-49
2021/11/17 11:53:30;;;;;;;1.27;0.90;;;21.20;45.20;;;;;;4969653;28;20205;-51
2021/11/17 11:56:20;;;;;;;1.58;0.80;;;21.20;45.20;;;;;;4970186;28;20752;-48
2021/11/17 11:58:53;;;;;;;1.55;0.82;;;21.20;45.20;;;;;;4960932;28;20642;-48
2021/11/17 12:01:26;;;;;;;1.85;1.00;;;21.20;45.20;;;;;;4968852;28;20317;-47
2021/11/17 12:04:01;;;;;;;2.03;0.85;;;21.20;45.30;;;;;;4958486;28;20313;-46
2021/11/17 12:06:37;;;;;;;1.65;0.95;;;21.10;45.20;;;;;;4955836;28;20285;-45
2021/11/17 12:09:17;;;;;;;1.13;0.98;;;21.10;45.30;;;;;;4956607;28;20298;-48
2021/11/17 12:11:54;;;;;;;0.82;0.65;;;21.10;45.30;;;;;;4955779;28;20273;-48
2021/11/17 12:14:37;;;;;;;1.45;0.80;;;21.10;45.30;;;;;;4968164;28;20309;-45
2021/11/17 12:17:09;;;;;;;1.63;0.70;;;21.10;45.30;;;;;;4963193;28;20221;-52
2021/11/17 12:19:45;;;;;;;1.45;0.88;;;21.10;45.30;;;;;;4954267;28;20291;-49
2021/11/17 12:22:19;;;;;;;1.10;0.88;;;21.10;45.30;;;;;;4954499;28;20310;-47
2021/11/17 12:24:51;;;;;;;0.93;0.77;;;21.10;45.30;;;;;;4966398;28;20228;-47
2021/11/17 12:27:24;;;;;;;1.05;0.70;;;21.00;45.30;;;;;;4967093;28;20206;-48
2021/11/17 12:30:03;;;;;;;1.67;1.00;;;21.00;45.30;;;;;;4962904;28;20226;-47
2021/11/17 12:32:37;;;;;;;0.70;0.60;;;21.00;45.30;;;;;;4958222;28;20198;-49
2021/11/17 12:35:27;;;;;;;2.42;0.82;;;21.00;45.30;;;;;;4967230;28;20320;-50
2021/11/17 12:38:04;;;;;;;1.25;0.90;;;21.00;45.40;;;;;;4954246;28;20270;-47
2021/11/17 12:40:44;;;;;;;0.90;0.60;;;21.00;45.30;;;;;;4953172;28;20611;-46
2021/11/17 12:43:17;;;;;;;1.42;0.82;;;21.00;45.50;;;;;;4968940;28;20709;-46
2021/11/17 12:45:51;;;;;;;0.85;0.60;;;20.90;45.30;;;;;;4959543;28;20592;-45
2021/11/17 12:51:06;;;;;;;0.88;0.60;;;20.90;45.30;;;;;;5746896;23;20234;-42
2021/11/17 12:53:49;;;;;;;1.30;0.70;;;20.90;45.40;;;;;;4952891;28;20694;-43
2021/11/17 12:56:26;;;;;;;0.73;0.57;;;20.90;45.40;;;;;;4951549;28;20757;-40
2021/11/17 12:59:00;;;;;;;1.85;0.98;;;20.90;45.40;;;;;;4952489;28;20214;-41
2021/11/17 13:01:42;;;;;;;0.93;0.68;;;20.90;45.50;;;;;;4952719;28;20230;-41
2021/11/17 13:04:32;;;;;;;1.20;0.80;;;20.80;45.40;;;;;;4952524;28;20723;-41
2021/11/17 13:07:04;;;;;;;0.75;0.65;;;20.80;45.50;;;;;;4953254;28;20217;-41
2021/11/17 13:09:52;;;;;;;1.58;0.80;;;20.80;45.50;;;;;;4952811;28;20206;-41
2021/11/17 13:12:28;;;;;;;1.23;0.70;;;20.80;45.50;;;;;;4952043;28;20207;-41
2021/11/17 13:15:11;;;;;;;1.33;0.70;;;20.80;45.50;;;;;;4952872;28;20222;-41
2021/11/17 13:17:45;;;;;;;2.35;1.00;;;20.80;45.50;;;;;;4952710;28;20231;-41
2021/11/17 13:20:41;;;;;;;1.73;0.77;;;20.80;45.50;;;;;;4952923;28;20199;-41
2021/11/17 13:23:29;;;;;;;0.93;0.63;;;20.70;45.60;;;;;;4947439;28;20313;-42
2021/11/17 13:26:12;;;;;;;1.70;0.70;;;20.70;45.50;;;;;;4953119;28;20225;-43
2021/11/17 13:28:45;;;;;;;0.95;0.70;;;20.70;45.50;;;;;;4933667;29;20645;-40
2021/11/17 13:31:44;;;;;;;1.42;0.60;;;20.70;45.50;;;;;;4933629;29;20199;-41
2021/11/17 13:34:28;;;;;;;1.42;0.80;;;20.70;45.60;;;;;;4893062;29;20745;-45
2021/11/17 13:37:16;;;;;;;1.20;0.73;;;20.60;45.50;;;;;;4928162;29;20294;-46
2021/11/17 13:39:46;;;;;;;1.33;0.93;;;20.60;45.60;;;;;;4933446;29;20627;-44
2021/11/17 13:42:17;;;;;;;1.88;0.80;;;20.60;45.60;;;;;;4942532;28;20264;-46
2021/11/17 13:44:47;;;;;;;1.00;0.55;;;20.60;45.70;;;;;;4952380;28;20274;-44
2021/11/17 13:47:21;;;;;;;1.17;0.93;;;20.60;45.70;;;;;;4952212;28;20648;-44
2021/11/17 13:49:55;;;;;;;1.77;0.60;;;20.60;45.70;;;;;;4963908;23;20231;-49
2021/11/17 13:52:31;;;;;;;1.50;0.60;;;20.60;45.70;;;;;;4952183;28;20570;-48
2021/11/17 13:55:02;;;;;;;1.17;0.60;;;20.60;45.70;;;;;;4952488;28;20218;-49
2021/11/17 13:57:32;;;;;;;1.20;0.65;;;20.60;45.70;;;;;;4951566;28;20551;-50
2021/11/17 14:00:03;;;;;;;1.48;0.80;;;20.50;45.70;;;;;;4952190;28;20289;-46
2021/11/17 14:02:33;;;;;;;0.98;0.55;;;20.50;45.70;;;;;;4951777;28;20794;-47
2021/11/17 14:05:06;;;;;;;1.35;0.60;;;20.50;45.70;;;;;;4952283;28;20310;-49
2021/11/17 14:07:38;;;;;;;1.20;0.80;;;20.50;45.70;;;;;;4952140;28;20201;-48
2021/11/17 14:10:10;;;;;;;1.52;0.80;;;20.50;45.70;;;;;;4939029;28;20290;-50
2021/11/17 14:12:42;;;;;;;1.52;0.63;;;20.50;45.80;;;;;;4942953;29;20195;-47
2021/11/17 14:15:13;;;;;;;1.52;0.80;;;20.50;45.80;;;;;;4952078;28;20229;-51
2021/11/17 14:17:43;;;;;;;1.38;0.80;;;20.50;45.80;;;;;;4935833;28;20207;-51
2021/11/17 14:20:16;;;;;;;1.15;0.65;;;20.50;45.80;;;;;;4933050;29;20649;-49
2021/11/17 14:22:46;;;;;;;0.73;0.70;;;20.40;45.80;;;;;;4932617;29;20262;-48
2021/11/17 14:25:20;;;;;;;1.73;0.60;;;20.40;45.80;;;;;;4932571;29;20306;-46
2021/11/17 14:27:53;;;;;;;0.68;0.63;;;20.40;45.80;;;;;;4943643;29;20269;-51
2021/11/17 14:30:26;;;;;;;0.80;0.70;;;20.40;45.80;;;;;;4951977;28;20201;-51
2021/11/17 14:32:58;;;;;;;0.88;0.70;;;20.40;45.90;;;;;;4952266;28;20207;-52
2021/11/17 14:35:31;;;;;;;1.33;0.70;;;20.30;45.80;;;;;;4951913;28;20214;-47
2021/11/17 14:38:02;;;;;;;1.20;0.82;;;20.30;45.80;;;;;;4930879;28;20228;-50
2021/11/17 14:40:34;;;;;;;1.20;0.80;;;20.30;45.90;;;;;;4913629;29;20197;-51
2021/11/17 14:43:04;;;;;;;0.85;0.60;;;20.30;45.90;;;;;;4937908;29;20230;-47
2021/11/17 14:45:35;;;;;;;0.95;0.60;;;20.30;45.90;;;;;;4951613;28;20621;-49
2021/11/17 14:48:12;;;;;;;1.17;0.70;;;20.30;45.90;;;;;;4914329;29;20627;-48
2021/11/17 14:50:44;;;;;;;1.30;0.80;;;20.30;46.00;;;;;;4917532;29;20203;-48
2021/11/17 14:53:15;;;;;;;1.33;0.70;;;20.20;45.80;;;;;;4917608;29;20297;-49
2021/11/17 14:55:46;;;;;;;0.75;0.60;;;20.20;45.80;;;;;;4917174;29;20750;-43
2021/11/17 14:58:17;;;;;;;0.98;0.70;;;20.20;45.90;;;;;;4943070;29;20209;-46
2021/11/17 15:00:52;;;;;;;1.77;0.60;;;20.20;45.90;;;;;;4955298;28;20205;-49
2021/11/17 15:03:24;;;;;;;1.80;0.80;;;20.20;45.90;;;;;;4955063;28;20329;-49
2021/11/17 15:05:56;;;;;;;0.88;0.70;;;20.20;46.00;;;;;;4954866;28;20206;-45
2021/11/17 15:08:26;;;;;;;1.13;0.80;;;20.10;45.90;;;;;;4955176;28;20203;-48
2021/11/17 15:10:57;;;;;;;1.10;0.60;;;20.10;46.50;;;;;;4955157;28;20240;-50
2021/11/17 15:13:27;;;;;;;0.40;0.40;;;20.10;46.00;;;;;;4954678;28;20289;-50
2021/11/17 15:15:58;;;;;;;0.93;0.60;;;20.10;46.00;;;;;;4952954;28;20198;-50
2021/11/17 15:18:30;;;;;;;1.50;0.70;;;20.10;46.00;;;;;;4935656;29;20255;-46
2021/11/17 15:21:02;;;;;;;0.90;0.50;;;20.10;46.10;;;;;;4935413;29;20283;-46
2021/11/17 15:23:33;;;;;;;1.08;0.70;;;20.00;46.10;;;;;;4935975;29;20306;-49
2021/11/17 15:26:05;;;;;;;0.85;0.63;;;20.00;46.10;;;;;;4935807;29;20210;-48
2021/11/17 15:28:38;;;;;;;1.23;0.60;;;20.00;46.10;;;;;;4949449;29;20195;-45
2021/11/17 15:31:11;;;;;;;1.83;0.68;;;20.00;46.10;;;;;;4954986;28;20209;-46
2021/11/17 15:33:41;;;;;;;0.68;0.40;;;20.00;46.10;;;;;;4954796;28;20205;-51
2021/11/17 15:36:14;;;;;;;0.75;0.68;;;19.90;46.00;;;;;;4954711;28;20195;-44
2021/11/17 15:38:48;;;;;;;1.63;0.80;;;20.00;46.10;;;;;;4955119;28;20706;-46
2021/11/17 15:41:21;;;;;;;0.70;0.60;;;19.90;46.10;;;;;;4955037;28;20199;-46
2021/11/17 15:43:53;;;;;;;1.40;0.77;;;19.90;46.40;;;;;;4953899;28;20313;-48
2021/11/17 15:46:25;;;;;;;1.52;0.55;;;19.90;46.10;;;;;;4948818;28;20204;-49
2021/11/17 15:48:55;;;;;;;1.13;0.70;;;19.90;46.10;;;;;;4935735;29;20214;-48
2021/11/17 15:51:30;;;;;;;0.80;0.60;;;19.80;46.10;;;;;;4935105;29;20199;-52
2021/11/17 15:54:02;;;;;;;1.90;0.60;;;19.80;46.10;;;;;;4934994;29;20247;-48
2021/11/17 15:56:34;;;;;;;1.10;0.60;;;19.80;46.20;;;;;;4935180;29;20291;-45
2021/11/17 15:59:05;;;;;;;0.95;0.60;;;19.80;46.20;;;;;;4950731;28;20199;-47
2021/11/17 16:01:36;;;;;;;0.75;0.60;;;19.80;46.20;;;;;;4953567;28;20203;-46
2021/11/17 16:04:06;;;;;;;1.73;0.60;;;19.70;46.20;;;;;;4954157;28;20226;-48
2021/11/17 16:06:57;;;;;;;0.90;0.55;;;19.70;46.20;;;;;;4954347;28;20203;-50
2021/11/17 16:09:30;;;;;;;1.27;0.93;;;19.70;46.30;;;;;;4954435;28;20282;-47
2021/11/17 16:12:01;;;;;;;0.82;0.57;;;19.70;46.20;;;;;;4954129;28;20234;-49
2021/11/17 16:14:31;;;;;;;1.35;0.70;;;19.70;46.20;;;;;;4946505;29;20657;-49
2021/11/17 16:17:02;;;;;;;0.85;0.60;;;19.70;46.30;;;;;;4934990;29;20298;-48